Time;durP1;ratioP1;P1;durP2;ratioP2;P2;SDS_P1;SDS_P2;PMS_P1;PMS_P2;Temp;Humidity;BMP_temperature;BMP_pressure;BME280_temperature;BME280_humidity;BME280_pressure;Samples;Min_cycle;Max_cycle;Signal;HPM_P1;HPM_P2
2024/03/11 00:01:44;;;;;;;1.10;1.00;;;5.70;99.90;;;;;;5005326;28;20408;-87
2024/03/11 00:04:10;;;;;;;1.40;1.30;;;5.70;99.90;;;;;;5032115;28;20394;-87
2024/03/11 00:06:39;;;;;;;1.40;1.30;;;5.60;99.90;;;;;;5013402;28;20410;-87
2024/03/11 00:09:15;;;;;;;1.65;1.30;;;5.60;99.90;;;;;;5016561;28;20432;-87
2024/03/11 00:11:48;;;;;;;1.40;1.30;;;5.40;99.90;;;;;;5001107;28;20409;-86
2024/03/11 00:14:21;;;;;;;2.00;1.60;;;5.70;99.90;;;;;;5010721;28;20410;-87
2024/03/11 00:16:46;;;;;;;1.27;1.10;;;5.50;99.90;;;;;;5021034;28;20392;-87
2024/03/11 00:19:12;;;;;;;1.67;1.30;;;5.40;99.90;;;;;;5005746;28;20412;-86
2024/03/11 00:21:38;;;;;;;1.50;1.30;;;5.40;99.90;;;;;;5006233;28;20435;-86
2024/03/11 00:24:03;;;;;;;1.37;1.10;;;5.40;99.90;;;;;;5013624;28;20407;-86
2024/03/11 00:26:29;;;;;;;1.13;1.02;;;5.40;99.90;;;;;;5008721;28;20596;-86
2024/03/11 00:28:55;;;;;;;1.20;1.10;;;5.40;99.90;;;;;;5010076;28;20416;-86
2024/03/11 00:31:27;;;;;;;1.70;1.30;;;5.30;99.90;;;;;;5013254;28;20814;-86
2024/03/11 00:33:53;;;;;;;2.35;1.45;;;5.30;99.90;;;;;;5006692;28;20404;-86
2024/03/11 00:36:20;;;;;;;2.15;1.50;;;5.30;99.90;;;;;;5026455;28;20417;-86
2024/03/11 00:38:46;;;;;;;1.52;1.15;;;5.20;99.90;;;;;;5007016;28;20437;-86
2024/03/11 00:41:12;;;;;;;2.22;1.40;;;5.20;99.90;;;;;;5083556;23;20837;-82
2024/03/11 00:43:37;;;;;;;1.50;1.40;;;5.20;99.90;;;;;;5060252;28;20610;-82
2024/03/11 00:46:03;;;;;;;1.40;1.30;;;5.20;99.90;;;;;;5035699;28;20819;-82
2024/03/11 00:48:29;;;;;;;1.30;1.20;;;5.10;99.90;;;;;;5050758;28;20863;-82
2024/03/11 00:50:54;;;;;;;1.30;1.20;;;5.10;99.90;;;;;;5050673;28;20422;-83
2024/03/11 00:53:20;;;;;;;1.23;1.00;;;5.10;99.90;;;;;;5045469;28;20406;-83
2024/03/11 00:55:46;;;;;;;1.20;1.10;;;5.10;99.90;;;;;;5052743;28;20389;-83
2024/03/11 00:58:13;;;;;;;0.90;0.90;;;5.00;99.90;;;;;;5040494;28;20455;-83
2024/03/11 01:00:39;;;;;;;1.27;1.10;;;4.90;99.90;;;;;;5041020;28;20397;-84
2024/03/11 01:03:06;;;;;;;1.20;1.10;;;5.00;99.90;;;;;;5045508;28;20517;-84
2024/03/11 01:05:32;;;;;;;1.38;1.10;;;5.00;99.90;;;;;;5049919;28;20401;-83
2024/03/11 01:07:58;;;;;;;1.17;1.10;;;5.00;99.90;;;;;;5039138;28;20523;-83
2024/03/11 01:10:23;;;;;;;1.48;1.38;;;5.00;99.90;;;;;;5049794;28;20865;-83
2024/03/11 01:12:49;;;;;;;1.38;1.10;;;5.00;99.90;;;;;;5053312;28;20403;-82
2024/03/11 01:15:15;;;;;;;1.50;1.33;;;4.90;99.90;;;;;;5064708;28;20388;-83
2024/03/11 01:17:40;;;;;;;1.20;1.00;;;4.90;99.90;;;;;;5057920;28;20856;-84
2024/03/11 01:20:09;;;;;;;0.97;0.80;;;4.90;99.90;;;;;;5056803;28;20768;-83
2024/03/11 01:22:35;;;;;;;1.85;1.08;;;4.90;99.90;;;;;;5049062;28;20404;-83
2024/03/11 01:25:00;;;;;;;1.60;1.20;;;4.80;99.90;;;;;;5045852;28;20562;-84
2024/03/11 01:27:26;;;;;;;1.30;1.20;;;4.90;99.90;;;;;;5030957;28;20406;-83
2024/03/11 01:29:51;;;;;;;1.50;1.17;;;4.80;99.90;;;;;;5049222;28;20405;-84
2024/03/11 01:32:17;;;;;;;1.20;1.10;;;4.80;99.90;;;;;;5049025;28;20391;-84
2024/03/11 01:34:44;;;;;;;2.20;1.50;;;4.80;99.90;;;;;;5048111;28;20488;-84
2024/03/11 01:37:10;;;;;;;1.15;1.05;;;4.80;99.90;;;;;;5048165;28;20840;-83
2024/03/11 01:39:42;;;;;;;1.40;1.30;;;4.70;99.90;;;;;;5048550;28;20495;-83
2024/03/11 01:42:15;;;;;;;1.10;1.00;;;4.70;99.90;;;;;;5049512;28;20880;-83
2024/03/11 01:44:49;;;;;;;1.60;1.50;;;4.70;99.90;;;;;;5058589;28;20408;-83
2024/03/11 01:47:17;;;;;;;1.55;1.45;;;4.60;99.90;;;;;;5053363;28;20462;-84
2024/03/11 01:49:45;;;;;;;1.20;1.10;;;4.70;99.90;;;;;;5043647;28;20425;-83
2024/03/11 01:52:16;;;;;;;2.40;1.10;;;4.60;99.90;;;;;;5046664;28;20407;-83
2024/03/11 01:54:43;;;;;;;1.40;1.08;;;4.50;99.90;;;;;;5043694;28;20896;-83
2024/03/11 01:57:12;;;;;;;1.20;1.10;;;4.50;99.90;;;;;;5040324;28;20403;-83
2024/03/11 01:59:38;;;;;;;1.00;1.00;;;4.50;99.90;;;;;;5058660;28;20416;-84
2024/03/11 02:02:07;;;;;;;1.40;1.30;;;4.50;99.90;;;;;;5044667;28;20426;-83
2024/03/11 02:04:44;;;;;;;2.55;1.38;;;4.50;99.90;;;;;;5035779;28;20405;-83
2024/03/11 02:07:13;;;;;;;1.30;1.20;;;4.50;99.90;;;;;;5034750;28;20401;-83
2024/03/11 02:09:39;;;;;;;1.40;1.30;;;4.50;99.90;;;;;;5050826;28;20471;-83
2024/03/11 02:12:06;;;;;;;2.10;1.58;;;4.50;99.90;;;;;;5056159;28;20894;-83
2024/03/11 02:14:32;;;;;;;1.20;1.10;;;4.50;99.90;;;;;;5038096;28;20435;-83
2024/03/11 02:16:58;;;;;;;2.00;1.30;;;4.50;99.90;;;;;;5046026;28;20405;-82
2024/03/11 02:22:08;;;;;;;1.60;1.20;;;4.30;99.90;;;;;;5053249;28;20424;-84
2024/03/11 02:24:35;;;;;;;1.27;1.17;;;4.40;99.90;;;;;;5029177;28;20401;-83
2024/03/11 02:27:02;;;;;;;1.73;1.10;;;4.30;99.90;;;;;;5034224;28;20797;-83
2024/03/11 02:29:28;;;;;;;1.90;1.20;;;4.30;99.90;;;;;;5046315;28;20759;-83
2024/03/11 02:31:54;;;;;;;1.10;1.00;;;4.30;99.90;;;;;;5045519;28;20401;-84
2024/03/11 02:34:20;;;;;;;1.30;1.20;;;4.30;99.90;;;;;;5042718;28;20399;-83
2024/03/11 02:36:49;;;;;;;1.15;1.05;;;4.30;99.90;;;;;;5050761;28;20421;-83
2024/03/11 02:39:20;;;;;;;1.40;1.30;;;4.30;99.90;;;;;;5046207;28;20482;-84
2024/03/11 02:41:47;;;;;;;1.40;1.30;;;4.20;99.90;;;;;;5036465;28;20420;-84
2024/03/11 02:44:13;;;;;;;1.40;1.30;;;4.20;99.90;;;;;;5034343;28;20409;-83
2024/03/11 02:46:41;;;;;;;1.17;1.08;;;4.20;99.90;;;;;;5048191;28;20763;-84
2024/03/11 02:49:07;;;;;;;1.10;1.00;;;4.20;99.90;;;;;;5037972;28;20409;-84
2024/03/11 02:51:33;;;;;;;1.70;1.20;;;4.20;99.90;;;;;;5038631;28;20776;-84
2024/03/11 02:53:59;;;;;;;1.70;1.30;;;4.20;99.90;;;;;;5057405;28;20396;-84
2024/03/11 02:56:24;;;;;;;1.73;1.10;;;4.20;99.90;;;;;;5041707;28;20968;-84
2024/03/11 02:58:50;;;;;;;2.00;1.40;;;4.30;99.90;;;;;;5030408;28;20406;-83
2024/03/11 03:01:19;;;;;;;1.90;1.60;;;4.30;99.90;;;;;;5048881;28;20429;-81
2024/03/11 03:03:47;;;;;;;1.60;1.20;;;4.20;99.90;;;;;;5059590;28;20378;-82
2024/03/11 03:06:16;;;;;;;1.40;1.30;;;4.30;99.90;;;;;;5044700;28;20841;-82
2024/03/11 03:08:43;;;;;;;2.30;1.40;;;4.20;99.90;;;;;;5030898;28;20823;-82
2024/03/11 03:11:08;;;;;;;1.50;1.40;;;4.20;99.90;;;;;;5046459;28;20722;-83
2024/03/11 03:13:34;;;;;;;1.10;1.00;;;4.30;99.90;;;;;;5049622;28;20395;-83
2024/03/11 03:15:59;;;;;;;1.20;1.10;;;4.30;99.90;;;;;;5030542;28;20412;-83
2024/03/11 03:18:25;;;;;;;0.97;0.97;;;4.30;99.90;;;;;;5027932;28;20401;-83
2024/03/11 03:20:50;;;;;;;1.83;1.10;;;4.30;99.90;;;;;;5042409;28;20401;-83
2024/03/11 03:23:17;;;;;;;1.20;1.00;;;4.40;99.90;;;;;;5043734;28;20402;-82
2024/03/11 03:25:43;;;;;;;1.00;1.00;;;4.40;99.90;;;;;;5037566;28;20431;-83
2024/03/11 03:28:08;;;;;;;1.08;1.00;;;4.50;99.90;;;;;;5058612;28;20413;-83
2024/03/11 03:30:35;;;;;;;1.80;1.20;;;4.60;99.90;;;;;;5051404;28;20408;-83
2024/03/11 03:33:01;;;;;;;1.23;1.02;;;4.60;99.90;;;;;;5043733;28;20397;-83
2024/03/11 03:35:27;;;;;;;1.23;1.00;;;4.70;99.90;;;;;;5052798;28;20962;-83
2024/03/11 03:37:54;;;;;;;2.40;1.40;;;4.80;99.90;;;;;;5033604;28;20512;-84
2024/03/11 03:40:22;;;;;;;0.80;0.80;;;4.80;99.90;;;;;;5047313;28;20435;-83
2024/03/11 03:42:49;;;;;;;1.00;0.90;;;4.70;99.90;;;;;;5060606;28;20408;-84
2024/03/11 03:45:15;;;;;;;1.10;0.90;;;4.70;99.90;;;;;;5057109;28;20554;-84
2024/03/11 03:47:41;;;;;;;1.90;1.35;;;4.70;99.90;;;;;;5030443;28;20409;-84
2024/03/11 03:50:10;;;;;;;1.33;1.10;;;4.60;99.90;;;;;;5039477;28;20404;-83
2024/03/11 03:52:40;;;;;;;1.00;0.90;;;4.70;99.90;;;;;;5057715;28;20396;-83
2024/03/11 03:55:08;;;;;;;1.88;1.00;;;4.50;99.90;;;;;;5048085;28;20439;-83
2024/03/11 03:57:33;;;;;;;0.97;0.87;;;4.60;99.90;;;;;;5044410;28;20401;-83
2024/03/11 04:00:00;;;;;;;1.70;1.10;;;4.60;99.90;;;;;;5038310;28;20413;-82
2024/03/11 04:02:25;;;;;;;1.10;0.90;;;4.60;99.90;;;;;;5052004;28;20407;-82
2024/03/11 04:04:51;;;;;;;2.07;1.40;;;4.60;99.90;;;;;;5028289;28;20785;-83
2024/03/11 04:07:16;;;;;;;1.00;0.90;;;4.70;99.90;;;;;;5059432;28;20415;-82
2024/03/11 04:09:42;;;;;;;1.20;1.10;;;4.70;99.90;;;;;;5064184;28;20425;-83
2024/03/11 04:12:07;;;;;;;1.70;1.02;;;4.70;99.90;;;;;;5067104;28;20444;-82
2024/03/11 04:14:33;;;;;;;1.40;1.30;;;4.80;99.90;;;;;;5046015;28;20440;-83
2024/03/11 04:16:58;;;;;;;0.90;0.80;;;4.80;99.90;;;;;;5050312;28;20409;-83
2024/03/11 04:19:27;;;;;;;1.70;0.90;;;4.90;99.90;;;;;;5037627;28;20412;-83
2024/03/11 04:21:56;;;;;;;0.80;0.80;;;4.90;99.90;;;;;;5051684;28;20391;-83
2024/03/11 04:24:22;;;;;;;1.20;1.10;;;5.00;99.90;;;;;;5052368;28;20484;-83
2024/03/11 04:26:50;;;;;;;1.20;1.10;;;5.10;99.90;;;;;;5045263;28;20389;-82
2024/03/11 04:29:16;;;;;;;2.35;1.20;;;5.10;99.90;;;;;;5061016;28;20397;-83
2024/03/11 04:31:41;;;;;;;1.13;1.03;;;5.10;99.90;;;;;;5062089;28;20625;-83
2024/03/11 04:34:08;;;;;;;2.23;0.97;;;5.10;99.90;;;;;;5062168;28;20381;-83
2024/03/11 04:36:35;;;;;;;1.30;0.90;;;5.30;99.90;;;;;;5049712;28;20405;-83
2024/03/11 04:39:04;;;;;;;1.30;0.85;;;5.10;99.90;;;;;;5050974;28;20439;-83
2024/03/11 04:41:35;;;;;;;1.60;0.93;;;5.20;99.90;;;;;;5051663;28;20412;-83
2024/03/11 04:44:01;;;;;;;0.90;0.80;;;5.30;99.90;;;;;;5051407;28;20417;-83
2024/03/11 04:46:27;;;;;;;0.77;0.70;;;5.30;99.90;;;;;;5035294;28;20386;-83
2024/03/11 04:48:52;;;;;;;1.00;0.90;;;5.30;99.90;;;;;;5051712;28;20767;-83
2024/03/11 04:51:18;;;;;;;1.33;0.93;;;5.40;99.90;;;;;;5053480;28;20409;-84
2024/03/11 04:53:46;;;;;;;1.10;0.70;;;5.30;99.90;;;;;;5052255;28;20395;-84
2024/03/11 04:56:11;;;;;;;2.45;0.90;;;5.20;99.90;;;;;;5060277;28;20458;-83
2024/03/11 04:58:37;;;;;;;1.10;0.90;;;5.20;99.90;;;;;;5054469;28;20409;-83
2024/03/11 05:01:05;;;;;;;1.35;0.73;;;5.10;99.90;;;;;;5050509;28;20420;-83
2024/03/11 05:03:31;;;;;;;0.90;0.70;;;5.10;99.90;;;;;;5043126;28;20409;-83
2024/03/11 05:05:56;;;;;;;1.50;0.90;;;5.20;99.90;;;;;;5060972;28;20401;-84
2024/03/11 05:08:22;;;;;;;1.40;1.20;;;5.20;99.90;;;;;;5033922;28;21288;-83
2024/03/11 05:10:48;;;;;;;1.70;1.60;;;5.30;99.90;;;;;;5034303;28;20412;-84
2024/03/11 05:13:14;;;;;;;2.20;1.63;;;5.30;99.90;;;;;;5059063;28;20405;-83
2024/03/11 05:15:44;;;;;;;2.95;1.95;;;5.40;99.90;;;;;;5037968;28;20400;-84
2024/03/11 05:18:10;;;;;;;2.13;1.70;;;5.40;99.90;;;;;;5051315;28;20417;-83
2024/03/11 05:20:36;;;;;;;1.40;1.17;;;5.40;99.90;;;;;;5050937;28;20396;-83
2024/03/11 05:23:01;;;;;;;1.63;1.30;;;5.40;99.90;;;;;;5053893;28;20421;-84
2024/03/11 05:25:27;;;;;;;1.47;1.10;;;5.40;99.90;;;;;;5040842;28;20451;-83
2024/03/11 05:27:53;;;;;;;1.40;1.10;;;5.40;99.90;;;;;;5062539;28;20453;-83
2024/03/11 05:30:18;;;;;;;1.40;1.30;;;5.40;99.90;;;;;;5064967;28;20493;-84
2024/03/11 05:32:45;;;;;;;1.50;1.30;;;5.50;99.90;;;;;;5068918;28;20393;-84
2024/03/11 05:35:10;;;;;;;1.30;1.17;;;5.50;99.90;;;;;;5069960;28;20405;-84
2024/03/11 05:37:36;;;;;;;1.50;1.40;;;5.40;99.90;;;;;;5054315;28;20408;-84
2024/03/11 05:40:05;;;;;;;2.17;1.40;;;5.50;99.90;;;;;;5068327;28;20397;-86
2024/03/11 05:42:34;;;;;;;1.52;1.23;;;5.50;99.90;;;;;;5071236;28;20391;-85
2024/03/11 05:45:00;;;;;;;2.10;1.33;;;5.50;99.90;;;;;;5065957;28;20415;-84
2024/03/11 05:47:26;;;;;;;1.40;1.30;;;5.50;99.90;;;;;;5070756;28;20378;-84
2024/03/11 05:49:53;;;;;;;1.40;1.20;;;5.40;99.90;;;;;;5072561;28;20431;-84
2024/03/11 05:52:20;;;;;;;1.52;1.35;;;5.40;99.90;;;;;;5070461;28;20468;-84
2024/03/11 05:54:50;;;;;;;1.90;1.20;;;5.50;99.90;;;;;;5054317;28;20826;-84
2024/03/11 05:57:22;;;;;;;2.03;1.57;;;5.50;99.90;;;;;;5053201;28;20824;-84
2024/03/11 05:59:52;;;;;;;1.92;1.52;;;5.40;99.90;;;;;;5069573;28;20820;-83
2024/03/11 06:02:19;;;;;;;2.10;1.70;;;5.40;99.90;;;;;;5048692;28;21041;-82
2024/03/11 06:04:45;;;;;;;1.83;1.73;;;5.40;99.90;;;;;;5052156;28;20781;-82
2024/03/11 06:07:24;;;;;;;1.70;1.60;;;5.40;99.90;;;;;;5070276;28;20405;-81
2024/03/11 06:09:51;;;;;;;1.83;1.55;;;5.30;99.90;;;;;;5070408;28;20400;-82
2024/03/11 06:12:16;;;;;;;1.95;1.70;;;5.30;99.90;;;;;;5070542;28;20397;-83
2024/03/11 06:14:44;;;;;;;1.57;1.47;;;5.40;99.90;;;;;;5063696;28;20404;-83
2024/03/11 06:17:10;;;;;;;2.45;1.70;;;5.70;99.90;;;;;;5039632;28;20944;-82
2024/03/11 06:19:37;;;;;;;1.50;1.40;;;5.50;99.90;;;;;;5038558;28;20405;-82
2024/03/11 06:22:03;;;;;;;1.98;1.77;;;5.40;99.90;;;;;;5040109;28;20401;-82
2024/03/11 06:24:30;;;;;;;1.70;1.60;;;5.50;99.90;;;;;;5054874;28;20424;-83
2024/03/11 06:26:57;;;;;;;2.20;1.65;;;5.40;99.90;;;;;;5045522;28;20412;-83
2024/03/11 06:29:26;;;;;;;1.30;1.20;;;5.40;99.90;;;;;;5036996;28;20405;-83
2024/03/11 06:31:53;;;;;;;1.45;1.35;;;5.40;99.90;;;;;;5054918;28;20416;-83
2024/03/11 06:34:21;;;;;;;1.50;1.30;;;5.40;99.90;;;;;;5053282;28;20413;-83
2024/03/11 06:36:48;;;;;;;1.90;1.60;;;5.40;99.90;;;;;;5030562;28;20405;-84
2024/03/11 06:39:15;;;;;;;1.77;1.58;;;5.40;99.90;;;;;;5035901;28;20406;-84
2024/03/11 06:41:41;;;;;;;1.63;1.52;;;5.40;99.90;;;;;;5056317;22;20860;-83
2024/03/11 06:44:06;;;;;;;3.50;1.70;;;5.40;99.90;;;;;;5054274;28;20553;-82
2024/03/11 06:46:32;;;;;;;2.03;1.83;;;5.40;99.90;;;;;;5061323;28;20377;-83
2024/03/11 06:48:58;;;;;;;2.00;1.90;;;5.50;99.90;;;;;;5053492;28;20473;-82
2024/03/11 06:51:24;;;;;;;1.90;1.80;;;5.60;99.90;;;;;;5042603;28;20400;-82
2024/03/11 06:53:50;;;;;;;2.70;1.70;;;5.60;99.90;;;;;;5041714;28;20406;-82
2024/03/11 06:56:15;;;;;;;2.90;1.67;;;5.60;99.90;;;;;;5042970;28;20405;-83
2024/03/11 06:58:43;;;;;;;1.60;1.50;;;5.70;99.90;;;;;;5061459;28;20409;-83
2024/03/11 07:01:13;;;;;;;1.60;1.50;;;5.80;99.90;;;;;;5060609;28;20911;-82
2024/03/11 07:03:41;;;;;;;1.75;1.50;;;7.10;99.90;;;;;;5061493;28;20397;-83
2024/03/11 07:06:08;;;;;;;1.80;1.70;;;5.90;99.90;;;;;;5053845;28;20414;-82
2024/03/11 07:08:38;;;;;;;2.30;2.10;;;5.90;99.90;;;;;;5067395;28;20440;-83
2024/03/11 07:11:04;;;;;;;2.88;1.90;;;6.10;99.90;;;;;;5046285;28;20416;-82
2024/03/11 07:13:35;;;;;;;2.30;2.10;;;6.10;99.90;;;;;;5038773;28;20514;-83
2024/03/11 07:16:04;;;;;;;2.25;2.05;;;6.10;99.90;;;;;;5048096;28;20826;-82
2024/03/11 07:18:30;;;;;;;2.20;1.88;;;6.20;99.90;;;;;;5060513;28;20393;-83
2024/03/11 07:20:57;;;;;;;2.10;1.60;;;6.20;99.90;;;;;;5045724;28;20460;-82
2024/03/11 07:23:28;;;;;;;2.00;1.80;;;6.30;99.90;;;;;;5055431;28;20471;-83
2024/03/11 07:25:58;;;;;;;2.00;1.90;;;6.30;99.90;;;;;;5060318;28;20405;-84
2024/03/11 07:28:26;;;;;;;2.40;2.00;;;6.30;99.90;;;;;;5056129;28;20896;-84
2024/03/11 07:30:52;;;;;;;1.60;1.50;;;6.30;99.90;;;;;;5064656;28;20924;-83
2024/03/11 07:33:19;;;;;;;1.70;1.60;;;6.50;99.90;;;;;;5045539;28;20455;-83
2024/03/11 07:35:46;;;;;;;2.13;1.60;;;6.60;99.90;;;;;;5042139;28;20490;-84
2024/03/11 07:38:12;;;;;;;1.60;1.50;;;6.70;99.90;;;;;;5058956;28;20409;-83
2024/03/11 07:40:38;;;;;;;1.90;1.37;;;6.80;99.90;;;;;;5063151;28;20948;-83
2024/03/11 07:43:08;;;;;;;2.08;1.60;;;6.80;99.90;;;;;;5056665;28;20413;-83
2024/03/11 07:45:34;;;;;;;1.50;1.40;;;6.90;99.90;;;;;;5062939;28;20393;-83
2024/03/11 07:48:01;;;;;;;1.40;1.30;;;7.00;99.90;;;;;;5041485;28;20428;-83
2024/03/11 07:50:27;;;;;;;1.70;1.30;;;7.00;99.90;;;;;;5038483;28;20413;-83
2024/03/11 07:52:54;;;;;;;2.20;1.60;;;7.10;99.90;;;;;;5054869;28;20477;-87
2024/03/11 07:55:22;;;;;;;2.40;1.50;;;7.30;99.90;;;;;;5026651;28;20448;-86
2024/03/11 07:57:48;;;;;;;1.65;1.55;;;;;;;;;;5034566;28;20970;-86
2024/03/11 08:00:18;;;;;;;2.60;1.80;;;7.80;99.90;;;;;;5028711;28;20413;-86
2024/03/11 08:02:50;;;;;;;1.60;1.50;;;7.80;99.90;;;;;;5025566;28;20430;-86
2024/03/11 08:05:17;;;;;;;1.95;1.75;;;7.70;99.90;;;;;;5035706;28;20472;-87
2024/03/11 08:07:44;;;;;;;1.63;1.53;;;7.70;99.90;;;;;;5028357;28;20828;-85
2024/03/11 08:10:11;;;;;;;2.00;1.70;;;7.80;99.90;;;;;;5040609;28;20400;-82
2024/03/11 08:12:36;;;;;;;2.15;1.50;;;8.00;99.90;;;;;;5058469;28;20412;-81
2024/03/11 08:15:06;;;;;;;3.20;2.07;;;8.20;99.90;;;;;;5075638;28;20462;-82
2024/03/11 08:17:32;;;;;;;2.80;2.00;;;8.40;99.90;;;;;;5062823;28;20922;-82
2024/03/11 08:19:57;;;;;;;2.55;2.20;;;8.40;99.90;;;;;;5084755;28;20388;-82
2024/03/11 08:22:23;;;;;;;1.92;1.80;;;8.40;99.90;;;;;;5083403;28;20379;-83
2024/03/11 08:24:48;;;;;;;2.60;2.40;;;8.60;99.90;;;;;;5075854;28;20392;-82
2024/03/11 08:27:17;;;;;;;2.30;2.10;;;8.70;99.90;;;;;;5064287;28;20916;-82
2024/03/11 08:29:45;;;;;;;2.60;2.10;;;8.80;99.90;;;;;;5044965;28;20762;-82
2024/03/11 08:32:12;;;;;;;2.10;1.90;;;8.80;99.90;;;;;;5062563;28;20390;-82
2024/03/11 08:34:38;;;;;;;3.13;2.00;;;8.80;99.90;;;;;;5061935;28;20409;-82
2024/03/11 08:37:04;;;;;;;2.70;2.50;;;8.90;99.90;;;;;;5063118;28;20377;-82
2024/03/11 08:39:33;;;;;;;3.40;2.20;;;9.00;99.90;;;;;;5043987;28;20401;-82
2024/03/11 08:41:59;;;;;;;1.90;1.80;;;9.20;99.90;;;;;;5043421;28;20401;-82
2024/03/11 08:44:29;;;;;;;2.58;1.88;;;9.40;99.90;;;;;;5042946;28;20393;-82
2024/03/11 08:46:55;;;;;;;2.43;0.90;;;9.60;99.90;;;;;;5061639;28;20386;-82
2024/03/11 08:49:23;;;;;;;1.73;0.90;;;9.80;99.90;;;;;;5060974;28;20397;-82
2024/03/11 08:51:48;;;;;;;1.10;0.90;;;10.10;99.90;;;;;;5062860;28;20385;-82
2024/03/11 08:54:14;;;;;;;1.00;0.90;;;10.30;99.90;;;;;;5044358;28;20538;-82
2024/03/11 08:56:40;;;;;;;1.40;0.97;;;10.50;99.90;;;;;;5044961;28;20377;-83
2024/03/11 08:59:10;;;;;;;0.90;0.70;;;10.50;99.90;;;;;;5061567;28;20392;-83
2024/03/11 09:01:40;;;;;;;1.80;0.90;;;10.80;99.90;;;;;;5062057;28;20397;-82
2024/03/11 09:04:12;;;;;;;1.25;1.15;;;10.90;99.90;;;;;;5066319;28;20376;-82
2024/03/11 09:06:38;;;;;;;2.03;1.20;;;11.00;99.90;;;;;;5048792;28;20750;-82
2024/03/11 09:09:05;;;;;;;2.10;0.80;;;11.10;99.90;;;;;;5064363;28;20427;-82
2024/03/11 09:11:31;;;;;;;1.63;0.90;;;11.00;99.90;;;;;;5063948;28;20382;-82
2024/03/11 09:13:57;;;;;;;1.50;1.10;;;11.00;99.90;;;;;;5045580;28;20381;-83
2024/03/11 09:16:23;;;;;;;1.83;1.10;;;10.90;99.90;;;;;;5063658;28;20397;-82
2024/03/11 09:18:50;;;;;;;1.02;0.93;;;11.50;99.90;;;;;;5046042;28;20892;-82
2024/03/11 09:21:17;;;;;;;1.00;0.70;;;11.50;99.90;;;;;;5062067;28;20392;-82
2024/03/11 09:23:42;;;;;;;1.10;1.00;;;11.60;99.90;;;;;;5042869;28;20393;-83
2024/03/11 09:26:10;;;;;;;1.10;0.90;;;11.70;99.90;;;;;;5043514;28;20389;-83
2024/03/11 09:28:35;;;;;;;1.15;0.70;;;11.80;99.90;;;;;;5042674;28;20390;-82
2024/03/11 09:31:01;;;;;;;1.50;0.90;;;11.70;99.90;;;;;;5043834;28;20412;-82
2024/03/11 09:33:27;;;;;;;1.70;0.97;;;11.80;99.90;;;;;;5061321;28;20916;-82
2024/03/11 09:35:54;;;;;;;1.40;0.80;;;11.50;99.90;;;;;;5044233;28;20492;-83
2024/03/11 09:38:19;;;;;;;0.80;0.63;;;11.60;99.90;;;;;;5043846;28;20381;-83
2024/03/11 09:40:47;;;;;;;1.10;0.80;;;11.60;99.90;;;;;;5042905;28;20782;-82
2024/03/11 09:43:17;;;;;;;2.00;1.10;;;11.10;99.90;;;;;;5041809;28;20393;-82
2024/03/11 09:45:44;;;;;;;1.83;1.00;;;11.30;99.90;;;;;;5042356;28;20393;-83
2024/03/11 09:48:11;;;;;;;1.00;1.00;;;11.20;99.90;;;;;;5049391;28;20386;-81
2024/03/11 09:50:39;;;;;;;1.00;0.88;;;11.20;99.90;;;;;;5064252;28;20408;-83
2024/03/11 09:53:12;;;;;;;1.70;1.00;;;11.20;99.90;;;;;;5045603;28;20397;-83
2024/03/11 09:55:39;;;;;;;1.35;0.80;;;11.20;99.90;;;;;;5062444;28;20382;-82
2024/03/11 09:58:06;;;;;;;1.90;0.80;;;11.20;99.90;;;;;;5044295;28;20898;-83
2024/03/11 10:00:33;;;;;;;1.10;0.70;;;11.30;99.90;;;;;;5061868;28;20384;-81
2024/03/11 10:03:01;;;;;;;0.90;0.80;;;11.10;99.90;;;;;;5043338;28;20417;-82
2024/03/11 10:05:30;;;;;;;1.60;0.90;;;11.20;99.90;;;;;;5061111;28;20485;-81
2024/03/11 10:07:57;;;;;;;2.80;0.80;;;12.60;99.90;;;;;;5042792;28;20410;-80
2024/03/11 10:10:24;;;;;;;0.88;0.75;;;11.00;99.90;;;;;;5041968;28;20393;-81
2024/03/11 10:12:52;;;;;;;1.85;0.80;;;11.10;99.90;;;;;;5060267;28;20460;-81
2024/03/11 10:15:27;;;;;;;1.90;0.90;;;11.10;99.90;;;;;;5042929;28;20386;-81
2024/03/11 10:17:58;;;;;;;1.10;0.90;;;11.30;99.90;;;;;;5044646;28;20396;-81
2024/03/11 10:20:24;;;;;;;2.20;1.10;;;11.20;99.90;;;;;;5060928;28;20446;-82
2024/03/11 10:22:50;;;;;;;1.80;1.13;;;11.20;99.90;;;;;;5043574;28;20743;-82
2024/03/11 10:25:27;;;;;;;0.97;0.87;;;11.20;99.90;;;;;;5060935;28;20738;-82
2024/03/11 10:27:52;;;;;;;3.00;1.55;;;11.30;99.90;;;;;;5061428;28;20413;-82
2024/03/11 10:30:20;;;;;;;1.93;1.20;;;11.30;99.90;;;;;;5052982;28;20412;-82
2024/03/11 10:32:54;;;;;;;1.70;1.30;;;11.40;99.90;;;;;;5043863;28;20422;-81
2024/03/11 10:35:21;;;;;;;1.90;1.27;;;11.60;99.90;;;;;;5054682;28;20933;-81
2024/03/11 10:37:50;;;;;;;3.20;1.83;;;11.50;99.90;;;;;;5058693;28;20393;-82
2024/03/11 10:40:19;;;;;;;2.20;1.60;;;11.60;99.90;;;;;;5058196;28;20390;-81
2024/03/11 10:42:54;;;;;;;2.00;1.50;;;11.60;99.90;;;;;;5056475;28;20488;-81
2024/03/11 10:45:32;;;;;;;2.03;1.67;;;11.50;99.90;;;;;;5038675;28;20400;-81
2024/03/11 10:48:00;;;;;;;1.60;1.43;;;11.50;99.90;;;;;;5038377;28;20484;-82
2024/03/11 10:50:28;;;;;;;2.80;1.80;;;11.50;99.90;;;;;;5058258;28;20492;-82
2024/03/11 10:52:58;;;;;;;2.95;1.50;;;11.60;99.90;;;;;;5045859;28;20400;-81
2024/03/11 10:55:32;;;;;;;2.00;1.50;;;11.60;99.90;;;;;;5068053;28;20385;-81
2024/03/11 10:58:03;;;;;;;2.60;1.48;;;11.60;99.90;;;;;;5050169;28;20398;-82
2024/03/11 11:00:34;;;;;;;2.00;1.37;;;11.60;99.90;;;;;;5061998;28;20389;-81
2024/03/11 11:02:59;;;;;;;2.20;1.80;;;12.00;99.90;;;;;;5062265;28;20385;-81
2024/03/11 11:05:32;;;;;;;3.10;1.70;;;12.40;99.90;;;;;;5060805;28;20412;-81
2024/03/11 11:07:59;;;;;;;2.00;1.00;;;12.30;99.90;;;;;;5059602;28;20412;-81
2024/03/11 11:10:29;;;;;;;2.50;1.10;;;12.70;99.90;;;;;;5043547;28;20397;-81
2024/03/11 11:12:56;;;;;;;1.00;0.80;;;12.90;99.90;;;;;;5033904;28;21990;-80
2024/03/11 11:15:23;;;;;;;1.23;0.80;;;12.70;99.90;;;;;;5066364;28;20453;-80
2024/03/11 11:17:54;;;;;;;1.33;0.73;;;12.60;99.90;;;;;;5069055;28;20393;-80
2024/03/11 11:20:37;;;;;;;1.27;0.80;;;12.70;99.90;;;;;;5048572;28;20801;-81
2024/03/11 11:23:05;;;;;;;1.50;0.70;;;12.70;99.90;;;;;;5064082;28;20753;-82
2024/03/11 11:25:57;;;;;;;1.00;0.90;;;13.20;99.90;;;;;;5061777;28;20387;-80
2024/03/11 11:28:36;;;;;;;1.10;0.63;;;13.30;99.90;;;;;;5055199;28;20394;-81
2024/03/11 11:31:11;;;;;;;1.20;0.98;;;13.30;99.90;;;;;;5063348;28;20429;-81
2024/03/11 11:33:56;;;;;;;1.40;0.70;;;13.60;99.90;;;;;;5062204;28;20413;-82
2024/03/11 11:36:37;;;;;;;1.30;0.70;;;13.30;99.90;;;;;;5061634;28;20376;-82
2024/03/11 11:39:20;;;;;;;1.30;1.10;;;13.70;99.90;;;;;;5044291;28;20451;-83
2024/03/11 11:41:50;;;;;;;1.30;0.80;;;13.90;99.90;;;;;;5060808;28;20409;-82
2024/03/11 11:44:28;;;;;;;2.00;0.88;;;14.70;99.90;;;;;;5061313;28;20420;-83
2024/03/11 11:47:05;;;;;;;0.80;0.70;;;15.00;99.90;;;;;;5047176;28;20818;-83
2024/03/11 11:49:34;;;;;;;0.95;0.82;;;15.20;99.90;;;;;;5043862;28;20404;-83
2024/03/11 11:52:04;;;;;;;1.08;0.90;;;15.50;99.90;;;;;;5062778;28;20385;-82
2024/03/11 11:54:34;;;;;;;1.33;0.70;;;16.00;99.90;;;;;;5047074;28;20465;-82
2024/03/11 11:57:04;;;;;;;1.00;0.90;;;15.60;99.90;;;;;;5046445;28;20488;-83
2024/03/11 11:59:30;;;;;;;1.10;0.68;;;15.80;99.90;;;;;;5046856;28;20413;-83
2024/03/11 12:02:00;;;;;;;1.27;0.80;;;15.20;99.90;;;;;;5047041;28;20416;-82
2024/03/11 12:04:26;;;;;;;1.00;0.70;;;15.10;99.90;;;;;;5046127;28;20789;-82
2024/03/11 12:06:52;;;;;;;0.90;0.80;;;15.40;99.90;;;;;;5046101;28;20393;-82
2024/03/11 12:09:17;;;;;;;2.00;0.90;;;16.20;99.90;;;;;;5046232;28;20393;-83
2024/03/11 12:11:48;;;;;;;1.10;0.70;;;14.80;99.90;;;;;;5044897;28;20465;-83
2024/03/11 12:14:14;;;;;;;1.15;0.80;;;16.00;99.90;;;;;;5062880;28;20382;-83
2024/03/11 12:16:39;;;;;;;1.30;0.80;;;16.80;99.90;;;;;;5045453;28;20477;-83
2024/03/11 12:19:06;;;;;;;1.07;0.83;;;16.90;99.90;;;;;;5045065;28;20389;-83
2024/03/11 12:21:38;;;;;;;1.25;0.70;;;15.90;99.90;;;;;;5061066;28;20443;-82
2024/03/11 12:24:11;;;;;;;3.05;0.80;;;15.60;99.90;;;;;;5061474;28;20874;-82
2024/03/11 12:26:38;;;;;;;2.28;1.00;;;15.40;99.90;;;;;;5044857;28;20448;-83
2024/03/11 12:29:14;;;;;;;3.00;0.90;;;15.40;99.90;;;;;;5045980;28;20467;-82
2024/03/11 12:31:41;;;;;;;1.20;0.80;;;14.70;99.90;;;;;;5071254;28;20444;-82
2024/03/11 12:34:10;;;;;;;1.30;0.80;;;14.00;99.90;;;;;;5054257;28;20397;-82
2024/03/11 12:36:46;;;;;;;1.20;0.93;;;14.50;99.90;;;;;;5054085;28;20389;-81
2024/03/11 12:39:20;;;;;;;1.20;0.70;;;16.00;99.90;;;;;;5053757;28;20392;-82
2024/03/11 12:41:47;;;;;;;1.97;0.70;;;16.40;99.90;;;;;;5051536;28;20624;-82
2024/03/11 12:44:14;;;;;;;2.58;0.70;;;17.80;99.90;;;;;;5051685;28;20389;-82
2024/03/11 12:46:44;;;;;;;1.23;0.60;;;18.20;99.90;;;;;;5069516;28;20404;-82
2024/03/11 12:49:13;;;;;;;2.20;0.60;;;17.10;99.90;;;;;;5065552;28;20400;-83
2024/03/11 12:51:40;;;;;;;0.60;0.50;;;17.40;99.90;;;;;;5046774;28;20382;-83
2024/03/11 12:54:19;;;;;;;1.60;0.60;;;17.00;99.90;;;;;;5047232;28;20388;-82
2024/03/11 12:57:02;;;;;;;0.90;0.50;;;18.00;99.90;;;;;;5066678;28;20378;-83
2024/03/11 12:59:28;;;;;;;1.50;0.70;;;17.30;99.90;;;;;;5066183;28;20439;-83